sensor_id;sensor_type;location;lat;lon;timestamp;temperature;humidity
9425;DHT22;17139;52.140;11.636;2023-11-18T00:01:04;3.30;62.00
9425;DHT22;17139;52.140;11.636;2023-11-18T00:03:33;3.80;61.70
9425;DHT22;17139;52.140;11.636;2023-11-18T00:06:00;3.60;61.40
9425;DHT22;17139;52.140;11.636;2023-11-18T00:08:27;3.40;61.90
9425;DHT22;17139;52.140;11.636;2023-11-18T00:10:54;3.30;62.40
9425;DHT22;17139;52.140;11.636;2023-11-18T00:13:21;3.30;62.60
9425;DHT22;17139;52.140;11.636;2023-11-18T00:15:49;3.20;62.80
9425;DHT22;17139;52.140;11.636;2023-11-18T00:18:16;3.20;62.90
9425;DHT22;17139;52.140;11.636;2023-11-18T00:20:44;3.20;62.90
9425;DHT22;17139;52.140;11.636;2023-11-18T00:23:11;3.20;63.00
9425;DHT22;17139;52.140;11.636;2023-11-18T00:25:39;3.20;63.00
9425;DHT22;17139;52.140;11.636;2023-11-18T00:28:06;3.20;63.10
9425;DHT22;17139;52.140;11.636;2023-11-18T00:30:34;3.20;63.10
9425;DHT22;17139;52.140;11.636;2023-11-18T00:33:01;3.20;63.10
9425;DHT22;17139;52.140;11.636;2023-11-18T00:35:28;3.30;63.10
9425;DHT22;17139;52.140;11.636;2023-11-18T00:37:59;3.30;63.00
9425;DHT22;17139;52.140;11.636;2023-11-18T00:40:26;3.20;63.00
9425;DHT22;17139;52.140;11.636;2023-11-18T00:42:55;3.20;63.00
9425;DHT22;17139;52.140;11.636;2023-11-18T00:45:22;3.30;63.20
9425;DHT22;17139;52.140;11.636;2023-11-18T00:47:50;4.20;61.90
9425;DHT22;17139;52.140;11.636;2023-11-18T00:50:17;4.00;62.20
9425;DHT22;17139;52.140;11.636;2023-11-18T00:52:44;3.80;62.00
9425;DHT22;17139;52.140;11.636;2023-11-18T00:55:16;3.60;62.40
9425;DHT22;17139;52.140;11.636;2023-11-18T00:57:44;3.50;62.60
9425;DHT22;17139;52.140;11.636;2023-11-18T01:00:13;3.30;62.90
9425;DHT22;17139;52.140;11.636;2023-11-18T01:02:42;3.20;63.10
9425;DHT22;17139;52.140;11.636;2023-11-18T01:05:09;3.20;63.30
9425;DHT22;17139;52.140;11.636;2023-11-18T01:07:36;3.00;63.40
9425;DHT22;17139;52.140;11.636;2023-11-18T01:10:04;3.00;63.70
9425;DHT22;17139;52.140;11.636;2023-11-18T01:12:34;2.80;63.80
9425;DHT22;17139;52.140;11.636;2023-11-18T01:15:02;2.80;64.00
9425;DHT22;17139;52.140;11.636;2023-11-18T01:17:29;2.70;64.30
9425;DHT22;17139;52.140;11.636;2023-11-18T01:19:57;2.60;64.20
9425;DHT22;17139;52.140;11.636;2023-11-18T01:22:26;3.00;64.10
9425;DHT22;17139;52.140;11.636;2023-11-18T01:24:55;2.80;63.30
9425;DHT22;17139;52.140;11.636;2023-11-18T01:27:23;2.60;63.70
9425;DHT22;17139;52.140;11.636;2023-11-18T01:29:52;2.70;64.00
9425;DHT22;17139;52.140;11.636;2023-11-18T01:32:19;2.60;63.60
9425;DHT22;17139;52.140;11.636;2023-11-18T01:34:47;2.40;64.00
9425;DHT22;17139;52.140;11.636;2023-11-18T01:37:16;2.30;64.10
9425;DHT22;17139;52.140;11.636;2023-11-18T01:39:43;2.20;64.40
9425;DHT22;17139;52.140;11.636;2023-11-18T01:42:10;2.10;64.50
9425;DHT22;17139;52.140;11.636;2023-11-18T01:44:37;2.00;64.50
9425;DHT22;17139;52.140;11.636;2023-11-18T01:47:08;2.00;64.70
9425;DHT22;17139;52.140;11.636;2023-11-18T01:49:38;1.90;64.70
9425;DHT22;17139;52.140;11.636;2023-11-18T01:52:07;1.80;64.70
9425;DHT22;17139;52.140;11.636;2023-11-18T01:54:36;1.80;64.70
9425;DHT22;17139;52.140;11.636;2023-11-18T01:57:05;1.70;64.70
9425;DHT22;17139;52.140;11.636;2023-11-18T01:59:35;1.60;64.70
9425;DHT22;17139;52.140;11.636;2023-11-18T02:02:06;1.60;64.90
9425;DHT22;17139;52.140;11.636;2023-11-18T02:04:33;1.50;64.90
9425;DHT22;17139;52.140;11.636;2023-11-18T02:07:00;2.00;64.50
9425;DHT22;17139;52.140;11.636;2023-11-18T02:09:30;1.90;63.60
9425;DHT22;17139;52.140;11.636;2023-11-18T02:12:04;1.70;64.10
9425;DHT22;17139;52.140;11.636;2023-11-18T02:14:39;1.60;64.50
9425;DHT22;17139;52.140;11.636;2023-11-18T02:17:09;1.60;64.50
9425;DHT22;17139;52.140;11.636;2023-11-18T02:19:39;1.50;64.60
9425;DHT22;17139;52.140;11.636;2023-11-18T02:22:07;1.40;64.60
9425;DHT22;17139;52.140;11.636;2023-11-18T02:24:37;1.30;64.50
9425;DHT22;17139;52.140;11.636;2023-11-18T02:27:08;1.30;64.60
9425;DHT22;17139;52.140;11.636;2023-11-18T02:29:39;1.30;64.60
9425;DHT22;17139;52.140;11.636;2023-11-18T02:32:13;1.20;64.60
9425;DHT22;17139;52.140;11.636;2023-11-18T02:34:49;1.20;64.70
9425;DHT22;17139;52.140;11.636;2023-11-18T02:37:19;1.20;64.80
9425;DHT22;17139;52.140;11.636;2023-11-18T02:39:52;1.10;64.90
9425;DHT22;17139;52.140;11.636;2023-11-18T02:42:22;1.10;65.00
9425;DHT22;17139;52.140;11.636;2023-11-18T02:44:51;1.00;64.90
9425;DHT22;17139;52.140;11.636;2023-11-18T02:47:25;1.00;65.00
9425;DHT22;17139;52.140;11.636;2023-11-18T02:49:54;0.90;64.90
9425;DHT22;17139;52.140;11.636;2023-11-18T02:52:32;1.00;65.10
9425;DHT22;17139;52.140;11.636;2023-11-18T02:55:00;0.90;65.00
9425;DHT22;17139;52.140;11.636;2023-11-18T02:57:28;0.90;64.90
9425;DHT22;17139;52.140;11.636;2023-11-18T02:59:55;0.90;64.80
9425;DHT22;17139;52.140;11.636;2023-11-18T03:02:23;0.80;64.70
9425;DHT22;17139;52.140;11.636;2023-11-18T03:04:53;0.80;64.70
9425;DHT22;17139;52.140;11.636;2023-11-18T03:07:20;0.80;64.70
9425;DHT22;17139;52.140;11.636;2023-11-18T03:09:47;0.80;64.80
9425;DHT22;17139;52.140;11.636;2023-11-18T03:12:15;0.70;64.80
9425;DHT22;17139;52.140;11.636;2023-11-18T03:14:43;0.70;64.80
9425;DHT22;17139;52.140;11.636;2023-11-18T03:17:10;0.80;65.00
9425;DHT22;17139;52.140;11.636;2023-11-18T03:19:38;0.70;64.90
9425;DHT22;17139;52.140;11.636;2023-11-18T03:22:05;0.70;64.90
9425;DHT22;17139;52.140;11.636;2023-11-18T03:24:32;0.80;65.00
9425;DHT22;17139;52.140;11.636;2023-11-18T03:26:59;0.80;65.00
9425;DHT22;17139;52.140;11.636;2023-11-18T03:29:26;0.80;64.80
9425;DHT22;17139;52.140;11.636;2023-11-18T03:31:56;0.90;64.80
9425;DHT22;17139;52.140;11.636;2023-11-18T03:34:24;0.90;64.70
9425;DHT22;17139;52.140;11.636;2023-11-18T03:36:51;0.90;64.60
9425;DHT22;17139;52.140;11.636;2023-11-18T03:39:18;1.00;64.40
9425;DHT22;17139;52.140;11.636;2023-11-18T03:41:45;1.00;64.40
9425;DHT22;17139;52.140;11.636;2023-11-18T03:44:12;1.00;64.20
9425;DHT22;17139;52.140;11.636;2023-11-18T03:46:40;1.10;64.30
9425;DHT22;17139;52.140;11.636;2023-11-18T03:49:09;1.10;64.30
9425;DHT22;17139;52.140;11.636;2023-11-18T03:51:36;1.20;64.30
9425;DHT22;17139;52.140;11.636;2023-11-18T03:54:04;1.20;64.20
9425;DHT22;17139;52.140;11.636;2023-11-18T03:56:34;1.30;64.30
9425;DHT22;17139;52.140;11.636;2023-11-18T03:59:01;1.30;64.10
9425;DHT22;17139;52.140;11.636;2023-11-18T04:01:30;1.40;64.10
9425;DHT22;17139;52.140;11.636;2023-11-18T04:03:58;1.50;64.20
9425;DHT22;17139;52.140;11.636;2023-11-18T04:06:26;1.50;64.00
9425;DHT22;17139;52.140;11.636;2023-11-18T04:08:53;1.60;63.90
9425;DHT22;17139;52.140;11.636;2023-11-18T04:11:21;1.70;63.80
9425;DHT22;17139;52.140;11.636;2023-11-18T04:13:49;1.80;63.70
9425;DHT22;17139;52.140;11.636;2023-11-18T04:16:17;1.80;63.50
9425;DHT22;17139;52.140;11.636;2023-11-18T04:18:45;1.80;63.50
9425;DHT22;17139;52.140;11.636;2023-11-18T04:21:12;1.90;63.60
9425;DHT22;17139;52.140;11.636;2023-11-18T04:23:42;2.50;64.00
9425;DHT22;17139;52.140;11.636;2023-11-18T04:26:12;2.50;62.90
9425;DHT22;17139;52.140;11.636;2023-11-18T04:28:40;2.40;63.00
9425;DHT22;17139;52.140;11.636;2023-11-18T04:31:07;2.30;63.20
9425;DHT22;17139;52.140;11.636;2023-11-18T04:33:34;2.30;63.30
9425;DHT22;17139;52.140;11.636;2023-11-18T04:36:02;2.30;63.40
9425;DHT22;17139;52.140;11.636;2023-11-18T04:38:31;2.30;63.50
9425;DHT22;17139;52.140;11.636;2023-11-18T04:41:00;2.30;63.50
9425;DHT22;17139;52.140;11.636;2023-11-18T04:43:29;2.30;63.60
9425;DHT22;17139;52.140;11.636;2023-11-18T04:45:56;2.30;63.70
9425;DHT22;17139;52.140;11.636;2023-11-18T04:48:24;2.30;63.70
9425;DHT22;17139;52.140;11.636;2023-11-18T04:50:51;2.40;63.80
9425;DHT22;17139;52.140;11.636;2023-11-18T04:53:18;2.40;63.70
9425;DHT22;17139;52.140;11.636;2023-11-18T04:55:45;2.40;63.70
9425;DHT22;17139;52.140;11.636;2023-11-18T04:58:15;2.40;63.70
9425;DHT22;17139;52.140;11.636;2023-11-18T05:00:42;2.50;63.70
9425;DHT22;17139;52.140;11.636;2023-11-18T05:03:09;2.50;63.70
9425;DHT22;17139;52.140;11.636;2023-11-18T05:05:37;2.50;63.70
9425;DHT22;17139;52.140;11.636;2023-11-18T05:08:05;2.60;63.70
9425;DHT22;17139;52.140;11.636;2023-11-18T05:10:33;2.70;63.80
9425;DHT22;17139;52.140;11.636;2023-11-18T05:13:02;2.80;63.30
9425;DHT22;17139;52.140;11.636;2023-11-18T05:15:30;2.70;63.40
9425;DHT22;17139;52.140;11.636;2023-11-18T05:17:57;2.70;63.50
9425;DHT22;17139;52.140;11.636;2023-11-18T05:20:26;2.70;63.40
9425;DHT22;17139;52.140;11.636;2023-11-18T05:22:53;2.70;63.50
9425;DHT22;17139;52.140;11.636;2023-11-18T05:25:21;2.70;63.60
9425;DHT22;17139;52.140;11.636;2023-11-18T05:27:48;2.70;63.70
9425;DHT22;17139;52.140;11.636;2023-11-18T05:30:15;2.70;63.80
9425;DHT22;17139;52.140;11.636;2023-11-18T05:32:45;2.80;63.80
9425;DHT22;17139;52.140;11.636;2023-11-18T05:35:12;2.80;63.70
9425;DHT22;17139;52.140;11.636;2023-11-18T05:37:39;2.80;63.60
9425;DHT22;17139;52.140;11.636;2023-11-18T05:40:07;2.80;63.60
9425;DHT22;17139;52.140;11.636;2023-11-18T05:42:37;2.80;63.60
9425;DHT22;17139;52.140;11.636;2023-11-18T05:45:07;2.80;63.60
9425;DHT22;17139;52.140;11.636;2023-11-18T05:47:44;2.80;63.50
9425;DHT22;17139;52.140;11.636;2023-11-18T05:50:12;2.90;63.60
9425;DHT22;17139;52.140;11.636;2023-11-18T05:52:40;2.80;63.50
9425;DHT22;17139;52.140;11.636;2023-11-18T05:55:08;2.80;63.50
9425;DHT22;17139;52.140;11.636;2023-11-18T05:57:36;3.20;63.50
9425;DHT22;17139;52.140;11.636;2023-11-18T06:00:04;3.10;62.70
9425;DHT22;17139;52.140;11.636;2023-11-18T06:02:34;2.90;63.00
9425;DHT22;17139;52.140;11.636;2023-11-18T06:05:06;2.80;63.30
9425;DHT22;17139;52.140;11.636;2023-11-18T06:07:33;3.50;62.30
9425;DHT22;17139;52.140;11.636;2023-11-18T06:10:00;3.20;61.80
9425;DHT22;17139;52.140;11.636;2023-11-18T06:12:31;2.90;62.50
9425;DHT22;17139;52.140;11.636;2023-11-18T06:14:58;2.50;63.10
9425;DHT22;17139;52.140;11.636;2023-11-18T06:17:25;2.30;63.60
9425;DHT22;17139;52.140;11.636;2023-11-18T06:19:53;2.10;63.80
9425;DHT22;17139;52.140;11.636;2023-11-18T06:22:22;2.00;64.20
9425;DHT22;17139;52.140;11.636;2023-11-18T06:24:50;1.80;64.50
9425;DHT22;17139;52.140;11.636;2023-11-18T06:27:17;1.70;64.60
9425;DHT22;17139;52.140;11.636;2023-11-18T06:29:49;1.60;64.70
9425;DHT22;17139;52.140;11.636;2023-11-18T06:32:20;1.50;64.90
9425;DHT22;17139;52.140;11.636;2023-11-18T06:34:47;1.40;65.10
9425;DHT22;17139;52.140;11.636;2023-11-18T06:37:15;1.40;65.20
9425;DHT22;17139;52.140;11.636;2023-11-18T06:39:44;1.30;65.10
9425;DHT22;17139;52.140;11.636;2023-11-18T06:42:14;1.20;65.10
9425;DHT22;17139;52.140;11.636;2023-11-18T06:44:41;1.20;65.20
9425;DHT22;17139;52.140;11.636;2023-11-18T06:47:09;2.10;64.10
9425;DHT22;17139;52.140;11.636;2023-11-18T06:49:38;1.90;63.50
9425;DHT22;17139;52.140;11.636;2023-11-18T06:52:07;1.60;63.90
9425;DHT22;17139;52.140;11.636;2023-11-18T06:54:37;2.10;63.80
9425;DHT22;17139;52.140;11.636;2023-11-18T06:57:06;1.90;63.40
9425;DHT22;17139;52.140;11.636;2023-11-18T06:59:33;1.70;64.50
9425;DHT22;17139;52.140;11.636;2023-11-18T07:02:00;1.50;64.20
9425;DHT22;17139;52.140;11.636;2023-11-18T07:04:27;1.40;64.50
9425;DHT22;17139;52.140;11.636;2023-11-18T07:06:55;1.30;64.70
9425;DHT22;17139;52.140;11.636;2023-11-18T07:09:22;1.20;64.80
9425;DHT22;17139;52.140;11.636;2023-11-18T07:11:51;1.20;65.00
9425;DHT22;17139;52.140;11.636;2023-11-18T07:14:20;1.10;65.10
9425;DHT22;17139;52.140;11.636;2023-11-18T07:16:47;1.10;65.20
9425;DHT22;17139;52.140;11.636;2023-11-18T07:19:14;1.10;65.20
9425;DHT22;17139;52.140;11.636;2023-11-18T07:21:45;1.00;65.10
9425;DHT22;17139;52.140;11.636;2023-11-18T07:24:13;1.00;65.20
9425;DHT22;17139;52.140;11.636;2023-11-18T07:26:40;1.00;65.10
9425;DHT22;17139;52.140;11.636;2023-11-18T07:29:07;1.10;65.10
9425;DHT22;17139;52.140;11.636;2023-11-18T07:31:35;1.20;65.30
9425;DHT22;17139;52.140;11.636;2023-11-18T07:34:03;1.20;64.70
9425;DHT22;17139;52.140;11.636;2023-11-18T07:36:31;1.20;64.70
9425;DHT22;17139;52.140;11.636;2023-11-18T07:38:59;1.50;65.10
9425;DHT22;17139;52.140;11.636;2023-11-18T07:41:30;1.50;64.20
9425;DHT22;17139;52.140;11.636;2023-11-18T07:43:57;1.40;64.40
9425;DHT22;17139;52.140;11.636;2023-11-18T07:46:25;1.40;64.60
9425;DHT22;17139;52.140;11.636;2023-11-18T07:48:56;1.30;64.60
9425;DHT22;17139;52.140;11.636;2023-11-18T07:51:23;1.30;64.80
9425;DHT22;17139;52.140;11.636;2023-11-18T07:53:51;1.30;64.70
9425;DHT22;17139;52.140;11.636;2023-11-18T07:56:19;1.30;64.80
9425;DHT22;17139;52.140;11.636;2023-11-18T07:58:48;1.30;64.80
9425;DHT22;17139;52.140;11.636;2023-11-18T08:01:16;1.30;64.80
9425;DHT22;17139;52.140;11.636;2023-11-18T08:03:43;1.40;64.90
9425;DHT22;17139;52.140;11.636;2023-11-18T08:06:12;1.40;64.80
9425;DHT22;17139;52.140;11.636;2023-11-18T08:08:40;1.40;64.70
9425;DHT22;17139;52.140;11.636;2023-11-18T08:11:10;1.50;64.80
9425;DHT22;17139;52.140;11.636;2023-11-18T08:13:37;1.70;66.10
9425;DHT22;17139;52.140;11.636;2023-11-18T08:16:05;1.80;64.60
9425;DHT22;17139;52.140;11.636;2023-11-18T08:18:32;1.80;64.50
9425;DHT22;17139;52.140;11.636;2023-11-18T08:21:01;2.10;65.30
9425;DHT22;17139;52.140;11.636;2023-11-18T08:23:31;2.10;64.20
9425;DHT22;17139;52.140;11.636;2023-11-18T08:25:59;2.10;64.20
9425;DHT22;17139;52.140;11.636;2023-11-18T08:28:26;2.00;64.30
9425;DHT22;17139;52.140;11.636;2023-11-18T08:30:53;2.00;64.40
9425;DHT22;17139;52.140;11.636;2023-11-18T08:33:21;2.00;64.50
9425;DHT22;17139;52.140;11.636;2023-11-18T08:35:50;2.00;64.50
9425;DHT22;17139;52.140;11.636;2023-11-18T08:38:17;2.10;64.60
9425;DHT22;17139;52.140;11.636;2023-11-18T08:40:47;2.10;64.60
9425;DHT22;17139;52.140;11.636;2023-11-18T08:43:17;2.10;64.50
9425;DHT22;17139;52.140;11.636;2023-11-18T08:45:45;2.20;64.50
9425;DHT22;17139;52.140;11.636;2023-11-18T08:48:13;2.30;64.50
9425;DHT22;17139;52.140;11.636;2023-11-18T08:50:42;2.30;64.40
9425;DHT22;17139;52.140;11.636;2023-11-18T08:53:10;3.00;64.80
9425;DHT22;17139;52.140;11.636;2023-11-18T08:55:38;2.90;63.60
9425;DHT22;17139;52.140;11.636;2023-11-18T08:58:09;2.80;63.70
9425;DHT22;17139;52.140;11.636;2023-11-18T09:00:54;3.40;63.80
9425;DHT22;17139;52.140;11.636;2023-11-18T09:03:29;3.30;63.10
9425;DHT22;17139;52.140;11.636;2023-11-18T09:06:02;3.20;63.40
9425;DHT22;17139;52.140;11.636;2023-11-18T09:08:32;3.10;63.70
9425;DHT22;17139;52.140;11.636;2023-11-18T09:11:01;3.10;63.80
9425;DHT22;17139;52.140;11.636;2023-11-18T09:13:32;3.10;63.90
9425;DHT22;17139;52.140;11.636;2023-11-18T09:16:01;3.10;63.90
9425;DHT22;17139;52.140;11.636;2023-11-18T09:18:29;3.20;63.90
9425;DHT22;17139;52.140;11.636;2023-11-18T09:20:59;3.20;63.80
9425;DHT22;17139;52.140;11.636;2023-11-18T09:23:27;3.30;63.80
9425;DHT22;17139;52.140;11.636;2023-11-18T09:25:55;3.40;63.80
9425;DHT22;17139;52.140;11.636;2023-11-18T09:28:26;3.40;63.60
9425;DHT22;17139;52.140;11.636;2023-11-18T09:30:56;3.50;63.60
9425;DHT22;17139;52.140;11.636;2023-11-18T09:33:25;3.60;63.50
9425;DHT22;17139;52.140;11.636;2023-11-18T09:35:55;4.40;62.60
9425;DHT22;17139;52.140;11.636;2023-11-18T09:38:26;4.20;62.00
9425;DHT22;17139;52.140;11.636;2023-11-18T09:40:55;4.00;62.50
9425;DHT22;17139;52.140;11.636;2023-11-18T09:43:23;4.70;61.80
9425;DHT22;17139;52.140;11.636;2023-11-18T09:45:56;4.40;61.50
9425;DHT22;17139;52.140;11.636;2023-11-18T09:48:27;4.20;62.30
9425;DHT22;17139;52.140;11.636;2023-11-18T09:50:57;4.00;62.80
9425;DHT22;17139;52.140;11.636;2023-11-18T09:53:28;3.90;63.00
9425;DHT22;17139;52.140;11.636;2023-11-18T09:56:06;3.90;63.30
9425;DHT22;17139;52.140;11.636;2023-11-18T09:58:40;3.90;63.50
9425;DHT22;17139;52.140;11.636;2023-11-18T10:01:11;3.90;63.50
9425;DHT22;17139;52.140;11.636;2023-11-18T10:03:41;3.90;63.50
9425;DHT22;17139;52.140;11.636;2023-11-18T10:06:13;3.90;63.40
9425;DHT22;17139;52.140;11.636;2023-11-18T10:08:41;3.90;63.30
9425;DHT22;17139;52.140;11.636;2023-11-18T10:11:12;4.10;63.10
9425;DHT22;17139;52.140;11.636;2023-11-18T10:13:39;4.10;62.70
9425;DHT22;17139;52.140;11.636;2023-11-18T10:16:11;4.10;62.90
9425;DHT22;17139;52.140;11.636;2023-11-18T10:18:39;4.20;62.90
9425;DHT22;17139;52.140;11.636;2023-11-18T10:21:15;4.10;62.70
9425;DHT22;17139;52.140;11.636;2023-11-18T10:23:59;4.10;62.90
9425;DHT22;17139;52.140;11.636;2023-11-18T10:26:27;4.20;63.10
9425;DHT22;17139;52.140;11.636;2023-11-18T10:29:03;4.10;63.10
9425;DHT22;17139;52.140;11.636;2023-11-18T10:31:35;4.20;63.20
9425;DHT22;17139;52.140;11.636;2023-11-18T10:34:03;4.20;63.20
9425;DHT22;17139;52.140;11.636;2023-11-18T10:36:31;4.20;63.10
9425;DHT22;17139;52.140;11.636;2023-11-18T10:39:01;4.20;63.10
9425;DHT22;17139;52.140;11.636;2023-11-18T10:41:40;4.30;63.10
9425;DHT22;17139;52.140;11.636;2023-11-18T10:44:09;4.30;63.00
9425;DHT22;17139;52.140;11.636;2023-11-18T10:46:51;4.40;63.00
9425;DHT22;17139;52.140;11.636;2023-11-18T10:49:21;5.20;60.90
9425;DHT22;17139;52.140;11.636;2023-11-18T10:51:50;5.00;61.20
9425;DHT22;17139;52.140;11.636;2023-11-18T10:54:17;4.90;61.50
9425;DHT22;17139;52.140;11.636;2023-11-18T10:56:49;4.70;61.90
9425;DHT22;17139;52.140;11.636;2023-11-18T10:59:16;4.70;62.30
9425;DHT22;17139;52.140;11.636;2023-11-18T11:01:45;4.60;62.50
9425;DHT22;17139;52.140;11.636;2023-11-18T11:04:15;4.60;62.60
9425;DHT22;17139;52.140;11.636;2023-11-18T11:06:47;4.60;62.60
9425;DHT22;17139;52.140;11.636;2023-11-18T11:09:19;4.60;62.80
9425;DHT22;17139;52.140;11.636;2023-11-18T11:11:53;5.40;60.60
9425;DHT22;17139;52.140;11.636;2023-11-18T11:14:22;5.30;60.90
9425;DHT22;17139;52.140;11.636;2023-11-18T11:17:05;6.00;59.30
9425;DHT22;17139;52.140;11.636;2023-11-18T11:19:45;5.60;60.10
9425;DHT22;17139;52.140;11.636;2023-11-18T11:22:19;5.30;61.00
9425;DHT22;17139;52.140;11.636;2023-11-18T11:24:59;5.20;61.70
9425;DHT22;17139;52.140;11.636;2023-11-18T11:27:41;5.30;61.80
9425;DHT22;17139;52.140;11.636;2023-11-18T11:30:21;5.30;61.80
9425;DHT22;17139;52.140;11.636;2023-11-18T11:33:03;5.30;62.00
9425;DHT22;17139;52.140;11.636;2023-11-18T11:35:40;5.30;62.20
9425;DHT22;17139;52.140;11.636;2023-11-18T11:38:12;5.30;62.30
9425;DHT22;17139;52.140;11.636;2023-11-18T11:40:41;5.30;62.20
9425;DHT22;17139;52.140;11.636;2023-11-18T11:43:10;5.20;62.20
9425;DHT22;17139;52.140;11.636;2023-11-18T11:45:37;5.20;62.40
9425;DHT22;17139;52.140;11.636;2023-11-18T11:48:07;5.20;62.50
9425;DHT22;17139;52.140;11.636;2023-11-18T11:50:57;5.20;62.60
9425;DHT22;17139;52.140;11.636;2023-11-18T11:53:33;5.20;62.70
9425;DHT22;17139;52.140;11.636;2023-11-18T11:56:05;5.10;62.80
9425;DHT22;17139;52.140;11.636;2023-11-18T11:58:34;5.40;62.20
9425;DHT22;17139;52.140;11.636;2023-11-18T12:01:15;5.40;62.00
9425;DHT22;17139;52.140;11.636;2023-11-18T12:03:46;5.30;62.20
9425;DHT22;17139;52.140;11.636;2023-11-18T12:06:18;5.30;62.50
9425;DHT22;17139;52.140;11.636;2023-11-18T12:08:50;5.30;62.70
9425;DHT22;17139;52.140;11.636;2023-11-18T12:11:18;5.20;62.70
9425;DHT22;17139;52.140;11.636;2023-11-18T12:14:05;5.20;62.70
9425;DHT22;17139;52.140;11.636;2023-11-18T12:17:02;5.20;62.70
9425;DHT22;17139;52.140;11.636;2023-11-18T12:19:35;5.10;62.90
9425;DHT22;17139;52.140;11.636;2023-11-18T12:22:14;5.10;63.00
9425;DHT22;17139;52.140;11.636;2023-11-18T12:28:10;5.10;63.20
9425;DHT22;17139;52.140;11.636;2023-11-18T12:30:44;5.10;63.40
9425;DHT22;17139;52.140;11.636;2023-11-18T12:33:23;5.10;63.40
9425;DHT22;17139;52.140;11.636;2023-11-18T12:39:58;5.10;63.30
9425;DHT22;17139;52.140;11.636;2023-11-18T12:43:04;5.10;63.40
9425;DHT22;17139;52.140;11.636;2023-11-18T12:48:34;5.70;61.60
9425;DHT22;17139;52.140;11.636;2023-11-18T12:51:05;5.40;62.30
9425;DHT22;17139;52.140;11.636;2023-11-18T12:53:36;5.30;63.50
9425;DHT22;17139;52.140;11.636;2023-11-18T12:56:04;5.30;63.10
9425;DHT22;17139;52.140;11.636;2023-11-18T12:58:31;5.20;63.20
9425;DHT22;17139;52.140;11.636;2023-11-18T13:01:01;5.20;63.30
9425;DHT22;17139;52.140;11.636;2023-11-18T13:03:28;5.30;63.50
9425;DHT22;17139;52.140;11.636;2023-11-18T13:05:56;5.30;63.50
9425;DHT22;17139;52.140;11.636;2023-11-18T13:08:24;5.30;63.50
9425;DHT22;17139;52.140;11.636;2023-11-18T13:10:52;5.40;63.50
9425;DHT22;17139;52.140;11.636;2023-11-18T13:13:19;5.40;63.40
9425;DHT22;17139;52.140;11.636;2023-11-18T13:15:48;6.30;61.90
9425;DHT22;17139;52.140;11.636;2023-11-18T13:18:18;6.10;61.70
9425;DHT22;17139;52.140;11.636;2023-11-18T13:20:54;5.90;62.40
9425;DHT22;17139;52.140;11.636;2023-11-18T13:23:25;6.70;60.00
9425;DHT22;17139;52.140;11.636;2023-11-18T13:25:55;6.40;60.10
9425;DHT22;17139;52.140;11.636;2023-11-18T13:28:23;6.20;62.00
9425;DHT22;17139;52.140;11.636;2023-11-18T13:30:51;6.00;62.40
9425;DHT22;17139;52.140;11.636;2023-11-18T13:33:20;5.90;62.80
9425;DHT22;17139;52.140;11.636;2023-11-18T13:35:47;5.80;63.10
9425;DHT22;17139;52.140;11.636;2023-11-18T13:38:15;5.80;63.30
9425;DHT22;17139;52.140;11.636;2023-11-18T13:40:44;5.80;63.30
9425;DHT22;17139;52.140;11.636;2023-11-18T13:43:12;5.80;63.40
9425;DHT22;17139;52.140;11.636;2023-11-18T13:45:40;5.70;63.40
9425;DHT22;17139;52.140;11.636;2023-11-18T13:48:08;5.80;63.50
9425;DHT22;17139;52.140;11.636;2023-11-18T13:50:42;5.80;63.60
9425;DHT22;17139;52.140;11.636;2023-11-18T13:53:09;5.80;63.60
9425;DHT22;17139;52.140;11.636;2023-11-18T13:55:38;6.30;62.60
9425;DHT22;17139;52.140;11.636;2023-11-18T13:58:05;6.20;62.30
9425;DHT22;17139;52.140;11.636;2023-11-18T14:00:33;6.10;62.70
9425;DHT22;17139;52.140;11.636;2023-11-18T14:03:02;6.80;60.40
9425;DHT22;17139;52.140;11.636;2023-11-18T14:05:33;6.50;60.40
9425;DHT22;17139;52.140;11.636;2023-11-18T14:08:03;6.30;62.20
9425;DHT22;17139;52.140;11.636;2023-11-18T14:10:34;6.10;62.60
9425;DHT22;17139;52.140;11.636;2023-11-18T14:13:04;6.00;63.10
9425;DHT22;17139;52.140;11.636;2023-11-18T14:15:34;5.90;63.40
9425;DHT22;17139;52.140;11.636;2023-11-18T14:18:02;5.80;63.60
9425;DHT22;17139;52.140;11.636;2023-11-18T14:20:33;5.70;63.70
9425;DHT22;17139;52.140;11.636;2023-11-18T14:23:02;5.60;63.70
9425;DHT22;17139;52.140;11.636;2023-11-18T14:25:30;5.60;63.90
9425;DHT22;17139;52.140;11.636;2023-11-18T14:27:57;5.50;64.00
9425;DHT22;17139;52.140;11.636;2023-11-18T14:30:24;5.50;64.10
9425;DHT22;17139;52.140;11.636;2023-11-18T14:32:52;5.50;64.30
9425;DHT22;17139;52.140;11.636;2023-11-18T14:35:20;5.80;63.70
9425;DHT22;17139;52.140;11.636;2023-11-18T14:37:48;5.80;63.30
9425;DHT22;17139;52.140;11.636;2023-11-18T14:40:17;5.60;63.60
9425;DHT22;17139;52.140;11.636;2023-11-18T14:42:46;6.40;61.30
9425;DHT22;17139;52.140;11.636;2023-11-18T14:45:15;6.10;62.20
9425;DHT22;17139;52.140;11.636;2023-11-18T14:47:44;5.90;62.90
9425;DHT22;17139;52.140;11.636;2023-11-18T14:50:13;5.70;63.40
9425;DHT22;17139;52.140;11.636;2023-11-18T14:52:44;5.60;63.70
9425;DHT22;17139;52.140;11.636;2023-11-18T14:55:12;5.50;64.10
9425;DHT22;17139;52.140;11.636;2023-11-18T14:57:41;5.40;64.30
9425;DHT22;17139;52.140;11.636;2023-11-18T15:00:11;5.30;64.30
9425;DHT22;17139;52.140;11.636;2023-11-18T15:02:45;5.30;64.40
9425;DHT22;17139;52.140;11.636;2023-11-18T15:05:14;5.30;65.20
9425;DHT22;17139;52.140;11.636;2023-11-18T15:07:44;5.30;64.60
9425;DHT22;17139;52.140;11.636;2023-11-18T15:10:15;5.20;64.60
9425;DHT22;17139;52.140;11.636;2023-11-18T15:12:47;5.20;64.60
9425;DHT22;17139;52.140;11.636;2023-11-18T15:15:19;5.50;64.40
9425;DHT22;17139;52.140;11.636;2023-11-18T15:17:47;5.40;63.80
9425;DHT22;17139;52.140;11.636;2023-11-18T15:20:16;5.30;64.20
9425;DHT22;17139;52.140;11.636;2023-11-18T15:22:45;5.60;64.00
9425;DHT22;17139;52.140;11.636;2023-11-18T15:25:13;5.50;63.60
9425;DHT22;17139;52.140;11.636;2023-11-18T15:27:43;5.40;63.90
9425;DHT22;17139;52.140;11.636;2023-11-18T15:30:14;6.20;62.50
9425;DHT22;17139;52.140;11.636;2023-11-18T15:32:43;5.90;62.40
9425;DHT22;17139;52.140;11.636;2023-11-18T15:35:12;5.70;63.20
9425;DHT22;17139;52.140;11.636;2023-11-18T15:37:42;5.50;63.60
9425;DHT22;17139;52.140;11.636;2023-11-18T15:40:12;5.40;64.10
9425;DHT22;17139;52.140;11.636;2023-11-18T15:42:40;5.30;64.30
9425;DHT22;17139;52.140;11.636;2023-11-18T15:45:09;5.20;64.40
9425;DHT22;17139;52.140;11.636;2023-11-18T15:47:39;5.20;64.60
9425;DHT22;17139;52.140;11.636;2023-11-18T15:50:09;5.20;64.70
9425;DHT22;17139;52.140;11.636;2023-11-18T15:52:38;5.80;63.70
9425;DHT22;17139;52.140;11.636;2023-11-18T15:55:06;5.60;63.20
9425;DHT22;17139;52.140;11.636;2023-11-18T15:57:39;5.50;63.70
9425;DHT22;17139;52.140;11.636;2023-11-18T16:00:08;6.20;62.60
9425;DHT22;17139;52.140;11.636;2023-11-18T16:02:42;5.90;62.50
9425;DHT22;17139;52.140;11.636;2023-11-18T16:05:11;5.60;63.10
9425;DHT22;17139;52.140;11.636;2023-11-18T16:07:41;5.50;63.70
9425;DHT22;17139;52.140;11.636;2023-11-18T16:10:09;5.60;63.90